sensor_id;sensor_type;location;lat;lon;timestamp;P1;durP1;ratioP1;P2;durP2;ratioP2
41627;SDS011;27321;50.816;6.054;2023-04-24T00:01:56;1.50;;;1.13;;
41627;SDS011;27321;50.816;6.054;2023-04-24T00:04:58;2.10;;;1.20;;
41627;SDS011;27321;50.816;6.054;2023-04-24T00:08:02;3.40;;;1.60;;
41627;SDS011;27321;50.816;6.054;2023-04-24T00:11:03;4.03;;;2.38;;
41627;SDS011;27321;50.816;6.054;2023-04-24T00:14:04;3.22;;;2.35;;
41627;SDS011;27321;50.816;6.054;2023-04-24T00:17:05;3.53;;;2.08;;
41627;SDS011;27321;50.816;6.054;2023-04-24T00:20:06;2.50;;;2.03;;
41627;SDS011;27321;50.816;6.054;2023-04-24T00:23:07;3.45;;;2.10;;
41627;SDS011;27321;50.816;6.054;2023-04-24T00:26:09;3.55;;;2.70;;
41627;SDS011;27321;50.816;6.054;2023-04-24T00:29:29;3.50;;;2.67;;
41627;SDS011;27321;50.816;6.054;2023-04-24T00:32:30;3.43;;;2.40;;
41627;SDS011;27321;50.816;6.054;2023-04-24T00:35:31;4.60;;;3.27;;
41627;SDS011;27321;50.816;6.054;2023-04-24T00:38:32;4.47;;;2.80;;
41627;SDS011;27321;50.816;6.054;2023-04-24T00:41:33;4.93;;;3.20;;
41627;SDS011;27321;50.816;6.054;2023-04-24T00:44:34;7.15;;;3.90;;
41627;SDS011;27321;50.816;6.054;2023-04-24T00:47:35;5.20;;;3.50;;
41627;SDS011;27321;50.816;6.054;2023-04-24T00:50:37;3.78;;;3.38;;
41627;SDS011;27321;50.816;6.054;2023-04-24T00:53:39;4.63;;;3.47;;
41627;SDS011;27321;50.816;6.054;2023-04-24T00:56:40;5.07;;;4.22;;
41627;SDS011;27321;50.816;6.054;2023-04-24T00:59:44;4.67;;;3.60;;
41627;SDS011;27321;50.816;6.054;2023-04-24T01:02:46;5.87;;;3.67;;
41627;SDS011;27321;50.816;6.054;2023-04-24T01:05:48;8.15;;;4.53;;
41627;SDS011;27321;50.816;6.054;2023-04-24T01:08:49;7.73;;;4.77;;
41627;SDS011;27321;50.816;6.054;2023-04-24T01:11:50;7.93;;;4.57;;
41627;SDS011;27321;50.816;6.054;2023-04-24T01:14:51;6.47;;;4.53;;
41627;SDS011;27321;50.816;6.054;2023-04-24T01:17:52;5.80;;;4.50;;
41627;SDS011;27321;50.816;6.054;2023-04-24T01:20:58;7.47;;;5.00;;
41627;SDS011;27321;50.816;6.054;2023-04-24T01:24:05;7.67;;;5.03;;
41627;SDS011;27321;50.816;6.054;2023-04-24T01:27:07;10.20;;;5.43;;
41627;SDS011;27321;50.816;6.054;2023-04-24T01:30:10;9.03;;;4.93;;
41627;SDS011;27321;50.816;6.054;2023-04-24T01:33:12;7.07;;;4.77;;
41627;SDS011;27321;50.816;6.054;2023-04-24T01:36:13;5.68;;;4.10;;
41627;SDS011;27321;50.816;6.054;2023-04-24T01:39:15;7.15;;;4.45;;
41627;SDS011;27321;50.816;6.054;2023-04-24T01:45:17;6.97;;;4.33;;
41627;SDS011;27321;50.816;6.054;2023-04-24T01:48:18;7.00;;;4.72;;
41627;SDS011;27321;50.816;6.054;2023-04-24T01:51:20;5.38;;;3.83;;
41627;SDS011;27321;50.816;6.054;2023-04-24T01:54:21;6.07;;;4.68;;
41627;SDS011;27321;50.816;6.054;2023-04-24T01:57:22;7.10;;;5.00;;
41627;SDS011;27321;50.816;6.054;2023-04-24T02:00:23;6.47;;;5.13;;
41627;SDS011;27321;50.816;6.054;2023-04-24T02:03:26;7.50;;;4.97;;
41627;SDS011;27321;50.816;6.054;2023-04-24T02:06:28;7.80;;;4.80;;
41627;SDS011;27321;50.816;6.054;2023-04-24T02:09:31;6.93;;;5.23;;
41627;SDS011;27321;50.816;6.054;2023-04-24T02:12:32;9.73;;;5.10;;
41627;SDS011;27321;50.816;6.054;2023-04-24T02:15:34;5.73;;;4.40;;
41627;SDS011;27321;50.816;6.054;2023-04-24T02:18:37;7.80;;;4.77;;
41627;SDS011;27321;50.816;6.054;2023-04-24T02:21:38;9.10;;;5.90;;
41627;SDS011;27321;50.816;6.054;2023-04-24T02:24:39;7.57;;;5.40;;
41627;SDS011;27321;50.816;6.054;2023-04-24T02:27:40;7.53;;;5.05;;
41627;SDS011;27321;50.816;6.054;2023-04-24T02:30:41;6.20;;;4.90;;
41627;SDS011;27321;50.816;6.054;2023-04-24T02:33:42;7.53;;;5.00;;
41627;SDS011;27321;50.816;6.054;2023-04-24T02:36:43;7.45;;;4.95;;
41627;SDS011;27321;50.816;6.054;2023-04-24T02:39:44;7.77;;;5.33;;
41627;SDS011;27321;50.816;6.054;2023-04-24T02:42:45;5.47;;;4.78;;
41627;SDS011;27321;50.816;6.054;2023-04-24T02:45:46;5.25;;;4.75;;
41627;SDS011;27321;50.816;6.054;2023-04-24T02:48:48;6.28;;;5.03;;
41627;SDS011;27321;50.816;6.054;2023-04-24T02:51:49;7.95;;;5.47;;
41627;SDS011;27321;50.816;6.054;2023-04-24T02:54:50;8.48;;;5.60;;
41627;SDS011;27321;50.816;6.054;2023-04-24T02:57:51;7.90;;;5.63;;
41627;SDS011;27321;50.816;6.054;2023-04-24T03:00:53;6.47;;;4.70;;
41627;SDS011;27321;50.816;6.054;2023-04-24T03:03:55;11.57;;;5.77;;
41627;SDS011;27321;50.816;6.054;2023-04-24T03:06:56;7.67;;;5.40;;
41627;SDS011;27321;50.816;6.054;2023-04-24T03:09:57;8.00;;;4.72;;
41627;SDS011;27321;50.816;6.054;2023-04-24T03:13:00;7.30;;;5.20;;
41627;SDS011;27321;50.816;6.054;2023-04-24T03:16:01;8.60;;;5.00;;
41627;SDS011;27321;50.816;6.054;2023-04-24T03:19:02;6.57;;;5.60;;
41627;SDS011;27321;50.816;6.054;2023-04-24T03:22:06;8.80;;;5.20;;
41627;SDS011;27321;50.816;6.054;2023-04-24T03:25:11;8.37;;;4.70;;
41627;SDS011;27321;50.816;6.054;2023-04-24T03:28:12;7.03;;;4.90;;
41627;SDS011;27321;50.816;6.054;2023-04-24T03:31:17;6.97;;;4.57;;
41627;SDS011;27321;50.816;6.054;2023-04-24T03:34:19;6.83;;;4.70;;
41627;SDS011;27321;50.816;6.054;2023-04-24T03:37:20;6.43;;;4.82;;
41627;SDS011;27321;50.816;6.054;2023-04-24T03:40:30;7.27;;;4.53;;
41627;SDS011;27321;50.816;6.054;2023-04-24T03:43:34;13.17;;;5.00;;
41627;SDS011;27321;50.816;6.054;2023-04-24T03:49:36;6.53;;;4.50;;
41627;SDS011;27321;50.816;6.054;2023-04-24T03:55:40;5.05;;;4.35;;
41627;SDS011;27321;50.816;6.054;2023-04-24T03:58:42;7.23;;;5.03;;
41627;SDS011;27321;50.816;6.054;2023-04-24T04:04:48;6.17;;;4.90;;
41627;SDS011;27321;50.816;6.054;2023-04-24T04:07:49;6.10;;;4.70;;
41627;SDS011;27321;50.816;6.054;2023-04-24T04:10:50;6.33;;;5.57;;
41627;SDS011;27321;50.816;6.054;2023-04-24T04:13:51;7.50;;;5.45;;
41627;SDS011;27321;50.816;6.054;2023-04-24T04:16:55;7.67;;;5.37;;
41627;SDS011;27321;50.816;6.054;2023-04-24T04:19:56;7.27;;;5.07;;
41627;SDS011;27321;50.816;6.054;2023-04-24T04:22:57;6.35;;;5.00;;
41627;SDS011;27321;50.816;6.054;2023-04-24T04:26:10;10.23;;;5.47;;
41627;SDS011;27321;50.816;6.054;2023-04-24T04:29:37;7.77;;;5.83;;
41627;SDS011;27321;50.816;6.054;2023-04-24T04:32:42;7.07;;;5.70;;
41627;SDS011;27321;50.816;6.054;2023-04-24T04:35:43;8.13;;;5.27;;
41627;SDS011;27321;50.816;6.054;2023-04-24T04:38:44;9.97;;;5.90;;
41627;SDS011;27321;50.816;6.054;2023-04-24T04:42:00;8.57;;;5.47;;
41627;SDS011;27321;50.816;6.054;2023-04-24T04:45:08;8.20;;;5.40;;
41627;SDS011;27321;50.816;6.054;2023-04-24T04:48:24;9.43;;;5.53;;
41627;SDS011;27321;50.816;6.054;2023-04-24T04:51:25;5.60;;;4.97;;
41627;SDS011;27321;50.816;6.054;2023-04-24T04:54:27;8.45;;;5.47;;
41627;SDS011;27321;50.816;6.054;2023-04-24T05:00:31;6.57;;;5.28;;
41627;SDS011;27321;50.816;6.054;2023-04-24T05:03:36;6.63;;;4.80;;
41627;SDS011;27321;50.816;6.054;2023-04-24T05:06:41;5.13;;;3.83;;
41627;SDS011;27321;50.816;6.054;2023-04-24T05:09:42;6.07;;;4.45;;
41627;SDS011;27321;50.816;6.054;2023-04-24T05:12:45;5.17;;;4.20;;
41627;SDS011;27321;50.816;6.054;2023-04-24T05:15:46;7.47;;;4.07;;
41627;SDS011;27321;50.816;6.054;2023-04-24T05:18:52;8.90;;;4.17;;
41627;SDS011;27321;50.816;6.054;2023-04-24T05:22:08;5.70;;;4.40;;
41627;SDS011;27321;50.816;6.054;2023-04-24T05:25:18;5.83;;;3.80;;
41627;SDS011;27321;50.816;6.054;2023-04-24T05:28:26;6.43;;;3.80;;
41627;SDS011;27321;50.816;6.054;2023-04-24T05:31:38;5.45;;;3.45;;
41627;SDS011;27321;50.816;6.054;2023-04-24T05:34:39;5.15;;;3.95;;
41627;SDS011;27321;50.816;6.054;2023-04-24T05:37:40;6.15;;;3.78;;
41627;SDS011;27321;50.816;6.054;2023-04-24T05:40:42;4.97;;;3.67;;
41627;SDS011;27321;50.816;6.054;2023-04-24T05:43:43;5.07;;;3.73;;
41627;SDS011;27321;50.816;6.054;2023-04-24T05:46:44;3.87;;;2.93;;
41627;SDS011;27321;50.816;6.054;2023-04-24T05:49:45;3.03;;;2.25;;
41627;SDS011;27321;50.816;6.054;2023-04-24T05:52:47;2.92;;;2.03;;
41627;SDS011;27321;50.816;6.054;2023-04-24T05:56:02;3.07;;;1.90;;
41627;SDS011;27321;50.816;6.054;2023-04-24T05:59:04;2.40;;;2.20;;
41627;SDS011;27321;50.816;6.054;2023-04-24T06:02:05;3.97;;;2.85;;
41627;SDS011;27321;50.816;6.054;2023-04-24T06:05:07;3.85;;;2.90;;
41627;SDS011;27321;50.816;6.054;2023-04-24T06:08:09;3.20;;;2.90;;
41627;SDS011;27321;50.816;6.054;2023-04-24T06:11:13;4.90;;;3.50;;
41627;SDS011;27321;50.816;6.054;2023-04-24T06:14:14;5.78;;;3.67;;
41627;SDS011;27321;50.816;6.054;2023-04-24T06:17:44;2.90;;;2.60;;
41627;SDS011;27321;50.816;6.054;2023-04-24T06:20:46;3.73;;;3.10;;
41627;SDS011;27321;50.816;6.054;2023-04-24T06:23:47;3.43;;;2.90;;
41627;SDS011;27321;50.816;6.054;2023-04-24T06:26:49;4.43;;;3.10;;
41627;SDS011;27321;50.816;6.054;2023-04-24T06:29:51;4.28;;;2.92;;
41627;SDS011;27321;50.816;6.054;2023-04-24T06:32:54;5.73;;;2.70;;
41627;SDS011;27321;50.816;6.054;2023-04-24T06:35:55;6.33;;;2.83;;
41627;SDS011;27321;50.816;6.054;2023-04-24T06:38:56;3.20;;;2.83;;
41627;SDS011;27321;50.816;6.054;2023-04-24T06:41:58;3.72;;;2.47;;
41627;SDS011;27321;50.816;6.054;2023-04-24T06:44:59;2.72;;;2.50;;
41627;SDS011;27321;50.816;6.054;2023-04-24T06:48:00;5.50;;;2.80;;
41627;SDS011;27321;50.816;6.054;2023-04-24T06:51:01;4.17;;;3.17;;
41627;SDS011;27321;50.816;6.054;2023-04-24T06:54:02;3.90;;;1.93;;
41627;SDS011;27321;50.816;6.054;2023-04-24T06:57:02;2.20;;;1.90;;
41627;SDS011;27321;50.816;6.054;2023-04-24T07:00:04;3.13;;;2.33;;
41627;SDS011;27321;50.816;6.054;2023-04-24T07:03:07;3.37;;;2.33;;
41627;SDS011;27321;50.816;6.054;2023-04-24T07:06:08;2.90;;;2.40;;
41627;SDS011;27321;50.816;6.054;2023-04-24T07:09:11;2.63;;;2.40;;
41627;SDS011;27321;50.816;6.054;2023-04-24T07:12:14;2.67;;;2.40;;
41627;SDS011;27321;50.816;6.054;2023-04-24T07:15:14;3.77;;;2.87;;
41627;SDS011;27321;50.816;6.054;2023-04-24T07:18:16;3.95;;;2.80;;
41627;SDS011;27321;50.816;6.054;2023-04-24T07:24:19;4.00;;;3.20;;
41627;SDS011;27321;50.816;6.054;2023-04-24T07:27:20;6.40;;;3.23;;
41627;SDS011;27321;50.816;6.054;2023-04-24T07:30:21;4.72;;;4.18;;
41627;SDS011;27321;50.816;6.054;2023-04-24T07:33:22;4.95;;;3.20;;
41627;SDS011;27321;50.816;6.054;2023-04-24T07:36:23;3.43;;;3.03;;
41627;SDS011;27321;50.816;6.054;2023-04-24T07:39:26;4.93;;;3.20;;
41627;SDS011;27321;50.816;6.054;2023-04-24T07:42:27;4.93;;;3.43;;
41627;SDS011;27321;50.816;6.054;2023-04-24T07:45:30;3.50;;;3.10;;
41627;SDS011;27321;50.816;6.054;2023-04-24T07:48:33;4.43;;;3.53;;
41627;SDS011;27321;50.816;6.054;2023-04-24T07:51:35;4.78;;;3.95;;
41627;SDS011;27321;50.816;6.054;2023-04-24T07:54:38;7.20;;;4.00;;
41627;SDS011;27321;50.816;6.054;2023-04-24T07:57:39;5.00;;;3.63;;
41627;SDS011;27321;50.816;6.054;2023-04-24T08:00:40;10.70;;;5.00;;
41627;SDS011;27321;50.816;6.054;2023-04-24T08:03:41;5.97;;;4.50;;
41627;SDS011;27321;50.816;6.054;2023-04-24T08:06:42;6.67;;;4.87;;
41627;SDS011;27321;50.816;6.054;2023-04-24T08:09:43;6.27;;;4.47;;
41627;SDS011;27321;50.816;6.054;2023-04-24T08:12:44;6.20;;;4.30;;
41627;SDS011;27321;50.816;6.054;2023-04-24T08:15:44;6.17;;;5.00;;
41627;SDS011;27321;50.816;6.054;2023-04-24T08:18:46;8.48;;;4.72;;
41627;SDS011;27321;50.816;6.054;2023-04-24T08:21:46;9.67;;;4.90;;
41627;SDS011;27321;50.816;6.054;2023-04-24T08:24:47;7.70;;;4.87;;
41627;SDS011;27321;50.816;6.054;2023-04-24T08:27:48;6.07;;;4.65;;
41627;SDS011;27321;50.816;6.054;2023-04-24T08:30:49;8.43;;;5.00;;
41627;SDS011;27321;50.816;6.054;2023-04-24T08:33:54;6.80;;;4.40;;
41627;SDS011;27321;50.816;6.054;2023-04-24T08:36:55;6.60;;;4.03;;
41627;SDS011;27321;50.816;6.054;2023-04-24T08:39:56;9.30;;;4.78;;
41627;SDS011;27321;50.816;6.054;2023-04-24T08:42:57;6.77;;;3.30;;
41627;SDS011;27321;50.816;6.054;2023-04-24T08:46:00;5.87;;;3.47;;
41627;SDS011;27321;50.816;6.054;2023-04-24T08:49:01;5.43;;;3.40;;
41627;SDS011;27321;50.816;6.054;2023-04-24T08:52:07;4.37;;;3.53;;
41627;SDS011;27321;50.816;6.054;2023-04-24T08:55:08;5.53;;;4.40;;
41627;SDS011;27321;50.816;6.054;2023-04-24T08:58:09;5.93;;;4.45;;
41627;SDS011;27321;50.816;6.054;2023-04-24T09:01:11;8.43;;;4.97;;
41627;SDS011;27321;50.816;6.054;2023-04-24T09:04:13;9.45;;;5.43;;
41627;SDS011;27321;50.816;6.054;2023-04-24T09:07:16;9.10;;;5.60;;
41627;SDS011;27321;50.816;6.054;2023-04-24T09:10:20;8.27;;;5.20;;
41627;SDS011;27321;50.816;6.054;2023-04-24T09:13:25;9.50;;;5.47;;
41627;SDS011;27321;50.816;6.054;2023-04-24T09:16:27;7.82;;;5.03;;
41627;SDS011;27321;50.816;6.054;2023-04-24T09:19:28;8.30;;;5.28;;
41627;SDS011;27321;50.816;6.054;2023-04-24T09:22:32;9.37;;;4.97;;
41627;SDS011;27321;50.816;6.054;2023-04-24T09:25:34;9.47;;;5.23;;
41627;SDS011;27321;50.816;6.054;2023-04-24T09:28:39;8.80;;;5.20;;
41627;SDS011;27321;50.816;6.054;2023-04-24T09:31:41;12.57;;;5.97;;
41627;SDS011;27321;50.816;6.054;2023-04-24T09:34:43;13.03;;;6.30;;
41627;SDS011;27321;50.816;6.054;2023-04-24T09:37:48;8.73;;;5.77;;
41627;SDS011;27321;50.816;6.054;2023-04-24T09:40:49;8.23;;;5.33;;
41627;SDS011;27321;50.816;6.054;2023-04-24T09:43:50;5.73;;;4.60;;
41627;SDS011;27321;50.816;6.054;2023-04-24T09:46:56;9.20;;;5.37;;
41627;SDS011;27321;50.816;6.054;2023-04-24T09:49:59;7.77;;;5.17;;
41627;SDS011;27321;50.816;6.054;2023-04-24T09:53:03;9.82;;;5.28;;
41627;SDS011;27321;50.816;6.054;2023-04-24T09:56:09;9.10;;;4.87;;
41627;SDS011;27321;50.816;6.054;2023-04-24T09:59:13;9.00;;;4.40;;
41627;SDS011;27321;50.816;6.054;2023-04-24T10:02:19;6.33;;;4.30;;
41627;SDS011;27321;50.816;6.054;2023-04-24T10:05:23;8.07;;;3.77;;
41627;SDS011;27321;50.816;6.054;2023-04-24T10:08:35;6.77;;;3.50;;
41627;SDS011;27321;50.816;6.054;2023-04-24T10:11:37;6.70;;;3.03;;
41627;SDS011;27321;50.816;6.054;2023-04-24T10:14:46;5.87;;;2.83;;
41627;SDS011;27321;50.816;6.054;2023-04-24T10:17:50;4.87;;;2.57;;
41627;SDS011;27321;50.816;6.054;2023-04-24T10:20:54;4.90;;;3.10;;
41627;SDS011;27321;50.816;6.054;2023-04-24T10:23:56;7.03;;;3.43;;
41627;SDS011;27321;50.816;6.054;2023-04-24T10:27:00;9.43;;;3.10;;
41627;SDS011;27321;50.816;6.054;2023-04-24T10:30:02;6.27;;;3.13;;
41627;SDS011;27321;50.816;6.054;2023-04-24T10:33:04;6.88;;;3.40;;
41627;SDS011;27321;50.816;6.054;2023-04-24T10:36:08;5.60;;;3.20;;
41627;SDS011;27321;50.816;6.054;2023-04-24T10:39:11;5.67;;;3.63;;
41627;SDS011;27321;50.816;6.054;2023-04-24T10:42:17;7.53;;;3.67;;
41627;SDS011;27321;50.816;6.054;2023-04-24T10:45:19;8.97;;;3.73;;
41627;SDS011;27321;50.816;6.054;2023-04-24T10:48:26;7.10;;;4.07;;
41627;SDS011;27321;50.816;6.054;2023-04-24T10:51:43;9.97;;;4.43;;
41627;SDS011;27321;50.816;6.054;2023-04-24T10:54:45;5.47;;;3.50;;
41627;SDS011;27321;50.816;6.054;2023-04-24T10:58:09;8.47;;;4.20;;
41627;SDS011;27321;50.816;6.054;2023-04-24T11:01:09;7.03;;;3.92;;
41627;SDS011;27321;50.816;6.054;2023-04-24T11:11:14;7.83;;;4.20;;
41627;SDS011;27321;50.816;6.054;2023-04-24T11:14:18;8.13;;;3.63;;
41627;SDS011;27321;50.816;6.054;2023-04-24T11:17:29;7.25;;;3.72;;
41627;SDS011;27321;50.816;6.054;2023-04-24T11:20:43;9.60;;;3.43;;
41627;SDS011;27321;50.816;6.054;2023-04-24T11:23:45;7.93;;;3.90;;
41627;SDS011;27321;50.816;6.054;2023-04-24T11:26:47;8.13;;;3.30;;
41627;SDS011;27321;50.816;6.054;2023-04-24T11:29:48;10.98;;;3.67;;
41627;SDS011;27321;50.816;6.054;2023-04-24T11:33:04;10.43;;;3.07;;
41627;SDS011;27321;50.816;6.054;2023-04-24T11:36:05;8.83;;;4.17;;
41627;SDS011;27321;50.816;6.054;2023-04-24T11:39:07;6.05;;;3.15;;
41627;SDS011;27321;50.816;6.054;2023-04-24T11:42:13;8.25;;;3.65;;
41627;SDS011;27321;50.816;6.054;2023-04-24T11:45:16;6.95;;;3.22;;
41627;SDS011;27321;50.816;6.054;2023-04-24T11:48:21;11.70;;;4.38;;
41627;SDS011;27321;50.816;6.054;2023-04-24T11:51:22;7.25;;;2.90;;
41627;SDS011;27321;50.816;6.054;2023-04-24T11:54:25;7.15;;;3.47;;
41627;SDS011;27321;50.816;6.054;2023-04-24T11:57:29;4.70;;;2.92;;
41627;SDS011;27321;50.816;6.054;2023-04-24T12:00:37;7.93;;;3.40;;
41627;SDS011;27321;50.816;6.054;2023-04-24T12:03:38;6.68;;;3.90;;
41627;SDS011;27321;50.816;6.054;2023-04-24T12:06:59;9.82;;;3.80;;
41627;SDS011;27321;50.816;6.054;2023-04-24T12:10:04;6.22;;;3.90;;
41627;SDS011;27321;50.816;6.054;2023-04-24T12:13:08;8.98;;;3.42;;
41627;SDS011;27321;50.816;6.054;2023-04-24T12:16:11;5.38;;;3.70;;
41627;SDS011;27321;50.816;6.054;2023-04-24T12:19:17;6.05;;;3.95;;
41627;SDS011;27321;50.816;6.054;2023-04-24T12:22:22;5.63;;;3.60;;
41627;SDS011;27321;50.816;6.054;2023-04-24T12:25:24;4.93;;;3.10;;
41627;SDS011;27321;50.816;6.054;2023-04-24T12:28:34;8.17;;;3.83;;
41627;SDS011;27321;50.816;6.054;2023-04-24T12:31:37;4.20;;;3.00;;
41627;SDS011;27321;50.816;6.054;2023-04-24T12:34:38;7.40;;;3.70;;
41627;SDS011;27321;50.816;6.054;2023-04-24T12:37:41;7.55;;;3.75;;
41627;SDS011;27321;50.816;6.054;2023-04-24T12:40:43;5.30;;;3.55;;
41627;SDS011;27321;50.816;6.054;2023-04-24T12:43:53;8.18;;;3.33;;
41627;SDS011;27321;50.816;6.054;2023-04-24T12:46:55;7.85;;;3.50;;
41627;SDS011;27321;50.816;6.054;2023-04-24T12:49:56;5.77;;;3.47;;
41627;SDS011;27321;50.816;6.054;2023-04-24T12:52:57;5.13;;;3.25;;
41627;SDS011;27321;50.816;6.054;2023-04-24T12:55:58;6.38;;;3.35;;
41627;SDS011;27321;50.816;6.054;2023-04-24T12:58:59;5.47;;;2.97;;
41627;SDS011;27321;50.816;6.054;2023-04-24T13:02:00;5.35;;;2.60;;
41627;SDS011;27321;50.816;6.054;2023-04-24T13:05:01;5.00;;;3.60;;
41627;SDS011;27321;50.816;6.054;2023-04-24T13:08:05;8.40;;;3.40;;
41627;SDS011;27321;50.816;6.054;2023-04-24T13:11:06;7.05;;;3.55;;
41627;SDS011;27321;50.816;6.054;2023-04-24T13:14:07;5.50;;;3.10;;
41627;SDS011;27321;50.816;6.054;2023-04-24T13:17:08;4.85;;;2.85;;
41627;SDS011;27321;50.816;6.054;2023-04-24T13:20:09;6.60;;;3.15;;
41627;SDS011;27321;50.816;6.054;2023-04-24T13:23:10;5.50;;;3.58;;
41627;SDS011;27321;50.816;6.054;2023-04-24T13:26:11;7.70;;;3.75;;
41627;SDS011;27321;50.816;6.054;2023-04-24T13:29:12;7.43;;;3.30;;
41627;SDS011;27321;50.816;6.054;2023-04-24T13:32:13;3.10;;;2.50;;
41627;SDS011;27321;50.816;6.054;2023-04-24T13:35:14;4.32;;;3.08;;
41627;SDS011;27321;50.816;6.054;2023-04-24T13:38:15;5.40;;;3.15;;
41627;SDS011;27321;50.816;6.054;2023-04-24T13:41:16;3.67;;;2.70;;
41627;SDS011;27321;50.816;6.054;2023-04-24T13:44:18;6.47;;;3.38;;
41627;SDS011;27321;50.816;6.054;2023-04-24T13:47:20;6.20;;;3.05;;
41627;SDS011;27321;50.816;6.054;2023-04-24T13:50:21;6.93;;;3.60;;
41627;SDS011;27321;50.816;6.054;2023-04-24T13:53:22;5.65;;;3.25;;
41627;SDS011;27321;50.816;6.054;2023-04-24T13:56:23;4.25;;;2.83;;
41627;SDS011;27321;50.816;6.054;2023-04-24T13:59:24;4.00;;;3.08;;
41627;SDS011;27321;50.816;6.054;2023-04-24T14:02:26;5.75;;;3.00;;
41627;SDS011;27321;50.816;6.054;2023-04-24T14:05:27;6.90;;;3.85;;
41627;SDS011;27321;50.816;6.054;2023-04-24T14:08:29;4.95;;;3.25;;
41627;SDS011;27321;50.816;6.054;2023-04-24T14:11:30;4.15;;;3.10;;
41627;SDS011;27321;50.816;6.054;2023-04-24T14:14:31;5.40;;;3.83;;
41627;SDS011;27321;50.816;6.054;2023-04-24T14:17:32;3.95;;;2.83;;
41627;SDS011;27321;50.816;6.054;2023-04-24T14:20:33;5.63;;;3.50;;
41627;SDS011;27321;50.816;6.054;2023-04-24T14:23:34;4.82;;;3.00;;
41627;SDS011;27321;50.816;6.054;2023-04-24T14:26:35;6.57;;;2.63;;
41627;SDS011;27321;50.816;6.054;2023-04-24T14:29:36;5.03;;;2.40;;
41627;SDS011;27321;50.816;6.054;2023-04-24T14:32:37;4.55;;;2.78;;
41627;SDS011;27321;50.816;6.054;2023-04-24T14:35:39;3.88;;;2.70;;
41627;SDS011;27321;50.816;6.054;2023-04-24T14:38:42;4.15;;;3.17;;
41627;SDS011;27321;50.816;6.054;2023-04-24T14:41:44;5.45;;;2.88;;
41627;SDS011;27321;50.816;6.054;2023-04-24T14:44:44;3.92;;;3.10;;
41627;SDS011;27321;50.816;6.054;2023-04-24T14:47:45;5.17;;;3.10;;
41627;SDS011;27321;50.816;6.054;2023-04-24T14:50:49;3.20;;;2.45;;
41627;SDS011;27321;50.816;6.054;2023-04-24T14:53:50;8.15;;;2.97;;
41627;SDS011;27321;50.816;6.054;2023-04-24T14:59:52;4.03;;;2.30;;
41627;SDS011;27321;50.816;6.054;2023-04-24T15:02:53;5.78;;;2.97;;
41627;SDS011;27321;50.816;6.054;2023-04-24T15:05:58;4.20;;;2.83;;
41627;SDS011;27321;50.816;6.054;2023-04-24T15:08:59;7.55;;;3.08;;
41627;SDS011;27321;50.816;6.054;2023-04-24T15:12:00;2.88;;;2.58;;
41627;SDS011;27321;50.816;6.054;2023-04-24T15:15:01;4.22;;;2.67;;
41627;SDS011;27321;50.816;6.054;2023-04-24T15:18:04;5.25;;;2.90;;
41627;SDS011;27321;50.816;6.054;2023-04-24T15:21:05;4.93;;;2.80;;
41627;SDS011;27321;50.816;6.054;2023-04-24T15:24:06;5.28;;;3.03;;
41627;SDS011;27321;50.816;6.054;2023-04-24T15:27:10;2.92;;;2.58;;
41627;SDS011;27321;50.816;6.054;2023-04-24T15:30:11;5.28;;;2.42;;
41627;SDS011;27321;50.816;6.054;2023-04-24T15:33:13;4.20;;;2.65;;
41627;SDS011;27321;50.816;6.054;2023-04-24T15:36:14;4.35;;;2.45;;
41627;SDS011;27321;50.816;6.054;2023-04-24T15:39:16;4.50;;;2.40;;
41627;SDS011;27321;50.816;6.054;2023-04-24T15:42:20;5.32;;;2.85;;
41627;SDS011;27321;50.816;6.054;2023-04-24T15:45:21;3.35;;;2.55;;
41627;SDS011;27321;50.816;6.054;2023-04-24T15:51:23;2.67;;;2.38;;
41627;SDS011;27321;50.816;6.054;2023-04-24T15:54:27;4.10;;;2.90;;
41627;SDS011;27321;50.816;6.054;2023-04-24T15:57:29;6.18;;;2.95;;
41627;SDS011;27321;50.816;6.054;2023-04-24T16:00:30;4.40;;;2.50;;
41627;SDS011;27321;50.816;6.054;2023-04-24T16:03:33;6.07;;;3.10;;
41627;SDS011;27321;50.816;6.054;2023-04-24T16:06:34;3.70;;;2.17;;
41627;SDS011;27321;50.816;6.054;2023-04-24T16:09:35;5.10;;;2.95;;
41627;SDS011;27321;50.816;6.054;2023-04-24T16:12:36;3.40;;;1.95;;
41627;SDS011;27321;50.816;6.054;2023-04-24T16:15:37;4.63;;;2.97;;
41627;SDS011;27321;50.816;6.054;2023-04-24T16:18:39;3.70;;;2.63;;
41627;SDS011;27321;50.816;6.054;2023-04-24T16:21:40;3.33;;;2.50;;
41627;SDS011;27321;50.816;6.054;2023-04-24T16:24:41;3.93;;;2.37;;
41627;SDS011;27321;50.816;6.054;2023-04-24T16:30:43;4.28;;;2.20;;
41627;SDS011;27321;50.816;6.054;2023-04-24T16:33:44;4.28;;;2.80;;
41627;SDS011;27321;50.816;6.054;2023-04-24T16:36:45;4.63;;;2.90;;
41627;SDS011;27321;50.816;6.054;2023-04-24T16:39:46;4.22;;;2.63;;
41627;SDS011;27321;50.816;6.054;2023-04-24T16:42:48;5.68;;;3.03;;
41627;SDS011;27321;50.816;6.054;2023-04-24T16:45:50;3.72;;;2.45;;
41627;SDS011;27321;50.816;6.054;2023-04-24T16:48:51;3.67;;;2.45;;
41627;SDS011;27321;50.816;6.054;2023-04-24T16:51:55;3.92;;;2.75;;
41627;SDS011;27321;50.816;6.054;2023-04-24T16:54:56;5.75;;;3.38;;
41627;SDS011;27321;50.816;6.054;2023-04-24T17:00:58;5.95;;;2.55;;
41627;SDS011;27321;50.816;6.054;2023-04-24T17:03:59;4.15;;;2.67;;
41627;SDS011;27321;50.816;6.054;2023-04-24T17:07:01;2.92;;;2.13;;
41627;SDS011;27321;50.816;6.054;2023-04-24T17:10:02;5.03;;;2.10;;
41627;SDS011;27321;50.816;6.054;2023-04-24T17:13:03;6.18;;;2.63;;
41627;SDS011;27321;50.816;6.054;2023-04-24T17:16:04;4.50;;;2.67;;
41627;SDS011;27321;50.816;6.054;2023-04-24T17:19:05;4.45;;;3.10;;
41627;SDS011;27321;50.816;6.054;2023-04-24T17:22:07;3.85;;;2.65;;
41627;SDS011;27321;50.816;6.054;2023-04-24T17:25:08;3.20;;;2.80;;
41627;SDS011;27321;50.816;6.054;2023-04-24T17:28:14;3.92;;;2.30;;
41627;SDS011;27321;50.816;6.054;2023-04-24T17:31:29;5.67;;;2.43;;
41627;SDS011;27321;50.816;6.054;2023-04-24T17:34:30;1.40;;;1.30;;
41627;SDS011;27321;50.816;6.054;2023-04-24T17:37:31;2.22;;;2.03;;
41627;SDS011;27321;50.816;6.054;2023-04-24T17:43:33;3.05;;;2.17;;
41627;SDS011;27321;50.816;6.054;2023-04-24T17:46:35;2.92;;;1.80;;
41627;SDS011;27321;50.816;6.054;2023-04-24T17:49:35;2.97;;;1.70;;
41627;SDS011;27321;50.816;6.054;2023-04-24T17:52:38;3.25;;;2.15;;
41627;SDS011;27321;50.816;6.054;2023-04-24T17:55:39;3.65;;;2.15;;
41627;SDS011;27321;50.816;6.054;2023-04-24T17:58:42;2.53;;;1.97;;
41627;SDS011;27321;50.816;6.054;2023-04-24T18:01:43;2.60;;;2.28;;
41627;SDS011;27321;50.816;6.054;2023-04-24T18:04:44;3.28;;;1.83;;
41627;SDS011;27321;50.816;6.054;2023-04-24T18:07:48;2.43;;;1.70;;
41627;SDS011;27321;50.816;6.054;2023-04-24T18:10:49;3.03;;;2.20;;
41627;SDS011;27321;50.816;6.054;2023-04-24T18:13:50;4.68;;;2.30;;
41627;SDS011;27321;50.816;6.054;2023-04-24T18:16:51;2.10;;;1.70;;
41627;SDS011;27321;50.816;6.054;2023-04-24T18:19:52;2.40;;;1.70;;
41627;SDS011;27321;50.816;6.054;2023-04-24T18:22:53;3.10;;;1.93;;
41627;SDS011;27321;50.816;6.054;2023-04-24T18:25:54;2.85;;;1.80;;
41627;SDS011;27321;50.816;6.054;2023-04-24T18:28:55;3.37;;;1.60;;
41627;SDS011;27321;50.816;6.054;2023-04-24T18:31:56;1.65;;;1.55;;
41627;SDS011;27321;50.816;6.054;2023-04-24T18:34:57;6.07;;;1.90;;
41627;SDS011;27321;50.816;6.054;2023-04-24T18:37:57;1.83;;;1.50;;
41627;SDS011;27321;50.816;6.054;2023-04-24T18:40:58;2.75;;;1.88;;
41627;SDS011;27321;50.816;6.054;2023-04-24T18:43:59;5.38;;;2.63;;
41627;SDS011;27321;50.816;6.054;2023-04-24T18:50:02;3.23;;;1.90;;
41627;SDS011;27321;50.816;6.054;2023-04-24T18:53:05;3.13;;;1.70;;
41627;SDS011;27321;50.816;6.054;2023-04-24T18:56:08;2.87;;;1.67;;
41627;SDS011;27321;50.816;6.054;2023-04-24T18:59:09;2.67;;;1.87;;
41627;SDS011;27321;50.816;6.054;2023-04-24T19:02:10;4.32;;;2.20;;
41627;SDS011;27321;50.816;6.054;2023-04-24T19:05:12;2.00;;;1.63;;